createdAt,value
2023-05-12T00:00:13.185Z,100405.64
2023-05-12T00:02:42.005Z,100407.83
2023-05-12T00:05:09.257Z,100407.94
2023-05-12T00:07:36.394Z,100406.64
2023-05-12T00:10:03.270Z,100407.02
2023-05-12T00:12:29.931Z,100407.83
2023-05-12T00:14:56.679Z,100405.18
2023-05-12T00:17:23.489Z,100402.58
2023-05-12T00:19:50.280Z,100402.55
2023-05-12T00:22:17.278Z,100399.95
2023-05-12T00:24:43.975Z,100396.87
2023-05-12T00:27:10.646Z,100396.23
2023-05-12T00:29:37.362Z,100396.22
2023-05-12T00:32:04.220Z,100396.42
2023-05-12T00:34:30.948Z,100394.23
2023-05-12T00:36:57.533Z,100395.98
2023-05-12T00:39:24.111Z,100392.67
2023-05-12T00:42:00.331Z,100393.12
2023-05-12T00:44:26.970Z,100390.44
2023-05-12T00:46:54.515Z,100389.11
2023-05-12T00:49:21.724Z,100391.89
2023-05-12T00:51:48.777Z,100392.69
2023-05-12T00:54:16.932Z,100394.91
2023-05-12T00:56:43.716Z,100390.17
2023-05-12T00:59:10.722Z,100393.46
2023-05-12T01:01:40.748Z,100391.33
2023-05-12T01:04:08.204Z,100385.65
2023-05-12T01:06:48.488Z,100381.53
2023-05-12T01:09:15.989Z,100380.14
2023-05-12T01:11:43.164Z,100379.48
2023-05-12T01:14:09.831Z,100378.23
2023-05-12T01:16:46.273Z,100376.14
2023-05-12T01:19:30.681Z,100377.58
2023-05-12T01:21:59.077Z,100379.67
2023-05-12T01:24:29.359Z,100378.05
2023-05-12T01:26:56.078Z,100380.65
2023-05-12T01:29:23.950Z,100380.34
2023-05-12T01:31:51.140Z,100380.46
2023-05-12T01:34:21.126Z,100380.29
2023-05-12T01:36:50.811Z,100386.38
2023-05-12T01:39:17.412Z,100387.91
2023-05-12T01:41:44.205Z,100388.89
2023-05-12T01:44:10.972Z,100392.41
2023-05-12T01:46:38.736Z,100391.27
2023-05-12T01:49:05.611Z,100389.09
2023-05-12T01:51:32.559Z,100392.22
2023-05-12T01:53:59.563Z,100392.73
2023-05-12T01:56:29.566Z,100392.59
2023-05-12T01:58:56.265Z,100392.55
2023-05-12T02:01:25.574Z,100396.66
2023-05-12T02:03:52.308Z,100395.59
2023-05-12T02:06:19.867Z,100392.18
2023-05-12T02:08:46.627Z,100392.92
2023-05-12T02:11:13.681Z,100390.20
2023-05-12T02:13:40.393Z,100388.65
2023-05-12T02:16:07.899Z,100387.12
2023-05-12T02:18:34.806Z,100382.96
2023-05-12T02:21:01.640Z,100383.23
2023-05-12T02:23:29.249Z,100387.41
2023-05-12T02:25:56.005Z,100385.85
2023-05-12T02:28:22.962Z,100391.45
2023-05-12T02:30:51.135Z,100387.66
2023-05-12T02:33:19.544Z,100386.02
2023-05-12T02:35:47.335Z,100385.33
2023-05-12T02:38:14.460Z,100387.77
2023-05-12T02:40:41.258Z,100391.80
2023-05-12T02:43:08.125Z,100392.46
2023-05-12T02:45:36.413Z,100391.34
2023-05-12T02:48:03.478Z,100388.98
2023-05-12T02:50:30.553Z,100388.54
2023-05-12T02:52:57.334Z,100388.11
2023-05-12T02:55:23.995Z,100390.58
2023-05-12T02:57:50.645Z,100392.88
2023-05-12T03:00:17.563Z,100391.45
2023-05-12T03:02:44.461Z,100391.64
2023-05-12T03:05:11.244Z,100388.70
2023-05-12T03:07:38.241Z,100383.02
2023-05-12T03:10:05.702Z,100381.35
2023-05-12T03:12:32.486Z,100381.23
2023-05-12T03:14:59.586Z,100384.58
2023-05-12T03:17:26.490Z,100384.05
2023-05-12T03:19:53.165Z,100384.45
2023-05-12T03:22:19.998Z,100381.07
2023-05-12T03:24:46.752Z,100378.89
2023-05-12T03:27:13.426Z,100383.71
2023-05-12T03:29:40.125Z,100388.23
2023-05-12T03:32:07.234Z,100383.54
2023-05-12T03:34:34.428Z,100382.52
2023-05-12T03:37:01.686Z,100379.92
2023-05-12T03:39:28.425Z,100377.66
2023-05-12T03:41:55.153Z,100373.80
2023-05-12T03:44:21.798Z,100371.36
2023-05-12T03:46:48.483Z,100372.88
2023-05-12T03:49:15.165Z,100372.92
2023-05-12T03:51:41.805Z,100374.40
2023-05-12T03:54:08.664Z,100371.64
2023-05-12T03:56:35.872Z,100372.39
2023-05-12T03:59:02.527Z,100370.91
2023-05-12T04:01:29.207Z,100368.77
2023-05-12T04:03:56.007Z,100374.11
2023-05-12T04:06:22.776Z,100372.21
2023-05-12T04:08:49.415Z,100369.83
2023-05-12T04:11:16.152Z,100373.81
2023-05-12T04:13:42.827Z,100373.95
2023-05-12T04:16:09.948Z,100373.55
2023-05-12T04:18:36.821Z,100369.82
2023-05-12T04:21:04.060Z,100370.11
2023-05-12T04:23:30.804Z,100367.64
2023-05-12T04:25:57.707Z,100371.09
2023-05-12T04:28:24.377Z,100375.66
2023-05-12T04:30:51.146Z,100380.23
2023-05-12T04:33:18.029Z,100382.51
2023-05-12T04:35:44.727Z,100389.58
2023-05-12T04:38:13.734Z,100393.31
2023-05-12T04:40:41.126Z,100394.84
2023-05-12T04:43:07.861Z,100396.77
2023-05-12T04:45:34.578Z,100399.84
2023-05-12T04:48:01.540Z,100401.26
2023-05-12T04:50:28.312Z,100401.45
2023-05-12T04:52:55.034Z,100398.35
2023-05-12T04:55:22.293Z,100400.67
2023-05-12T04:57:49.428Z,100399.04
2023-05-12T05:00:16.297Z,100402.39
2023-05-12T05:02:44.677Z,100403.62
2023-05-12T05:05:12.159Z,100402.44
2023-05-12T05:07:39.718Z,100405.73
2023-05-12T05:10:07.373Z,100412.86
2023-05-12T05:12:34.455Z,100410.95
2023-05-12T05:15:01.828Z,100413.42
2023-05-12T05:17:28.992Z,100414.95
2023-05-12T05:19:59.223Z,100415.14
2023-05-12T05:22:29.140Z,100419.94
2023-05-12T05:24:56.382Z,100422.09
2023-05-12T05:27:23.175Z,100426.20
2023-05-12T05:29:50.667Z,100429.37
2023-05-12T05:32:17.410Z,100430.27
2023-05-12T05:34:44.707Z,100434.23
2023-05-12T05:37:11.368Z,100438.15
2023-05-12T05:39:38.152Z,100438.27
2023-05-12T05:42:05.127Z,100434.59
2023-05-12T05:44:31.735Z,100439.96
2023-05-12T05:46:58.800Z,100440.09
2023-05-12T05:49:26.180Z,100439.55
2023-05-12T05:51:53.877Z,100442.35
2023-05-12T05:54:20.544Z,100444.50
2023-05-12T05:56:47.313Z,100448.52
2023-05-12T05:59:15.707Z,100448.36
2023-05-12T06:01:42.522Z,100447.41
2023-05-12T06:04:09.467Z,100450.20
2023-05-12T06:06:36.197Z,100446.91
2023-05-12T06:09:02.839Z,100447.08
2023-05-12T06:11:29.510Z,100448.36
2023-05-12T06:13:56.194Z,100445.26
2023-05-12T06:16:22.905Z,100441.45
2023-05-12T06:18:49.726Z,100438.17
2023-05-12T06:21:16.429Z,100441.39
2023-05-12T06:23:43.074Z,100441.02
2023-05-12T06:26:09.718Z,100443.31
2023-05-12T06:28:36.408Z,100445.38
2023-05-12T06:31:03.070Z,100444.83
2023-05-12T06:33:29.758Z,100447.13
2023-05-12T06:35:56.498Z,100456.73
2023-05-12T06:38:23.080Z,100453.86
2023-05-12T06:40:49.712Z,100458.69
2023-05-12T06:43:16.341Z,100457.98
2023-05-12T06:45:44.807Z,100462.65
2023-05-12T06:48:11.997Z,100464.11
2023-05-12T06:50:38.771Z,100462.18
2023-05-12T06:53:06.443Z,100466.08
2023-05-12T06:55:33.036Z,100466.23
2023-05-12T06:57:59.812Z,100468.77
2023-05-12T07:00:26.872Z,100467.11
2023-05-12T07:02:53.613Z,100467.30
2023-05-12T07:05:21.208Z,100473.17
2023-05-12T07:07:48.137Z,100478.78
2023-05-12T07:10:15.034Z,100479.16
2023-05-12T07:12:41.817Z,100481.83
2023-05-12T07:15:09.795Z,100482.65
2023-05-12T07:17:36.698Z,100481.30
2023-05-12T07:20:05.025Z,100482.41
2023-05-12T07:22:32.770Z,100480.92
2023-05-12T07:24:59.602Z,100477.30
2023-05-12T07:27:26.992Z,100479.73
2023-05-12T07:29:53.713Z,100483.52
2023-05-12T07:32:20.525Z,100486.94
2023-05-12T07:34:47.211Z,100486.44
2023-05-12T07:37:13.817Z,100487.14
2023-05-12T07:39:40.415Z,100488.55
2023-05-12T07:42:07.143Z,100486.73
2023-05-12T07:44:33.743Z,100488.52
2023-05-12T07:47:00.407Z,100488.42
2023-05-12T07:49:27.157Z,100485.37
2023-05-12T07:51:53.830Z,100483.66
2023-05-12T07:54:20.482Z,100488.30
2023-05-12T07:56:47.156Z,100483.38
2023-05-12T07:59:14.498Z,100484.45
2023-05-12T08:01:41.648Z,100488.59
2023-05-12T08:04:08.980Z,100488.78
2023-05-12T08:06:35.758Z,100488.43
2023-05-12T08:09:02.504Z,100487.99
2023-05-12T08:11:29.098Z,100490.73
2023-05-12T08:13:55.747Z,100487.90
2023-05-12T08:16:23.049Z,100492.95
2023-05-12T08:18:49.827Z,100493.80
2023-05-12T08:21:16.493Z,100492.43
2023-05-12T08:23:43.807Z,100491.77
2023-05-12T08:26:10.512Z,100501.27
2023-05-12T08:28:37.434Z,100501.57
2023-05-12T08:31:05.056Z,100497.25
2023-05-12T08:33:31.902Z,100502.78
2023-05-12T08:35:58.638Z,100505.08
2023-05-12T08:38:25.321Z,100503.99
2023-05-12T08:41:19.995Z,100506.35
2023-05-12T08:43:51.142Z,100508.29
2023-05-12T08:46:18.221Z,100508.75
2023-05-12T08:48:50.675Z,100504.95
2023-05-12T08:51:19.276Z,100510.11
2023-05-12T08:53:49.293Z,100512.71
2023-05-12T08:58:52.030Z,100510.61
2023-05-12T09:01:18.823Z,100510.70
2023-05-12T09:03:45.724Z,100509.04
2023-05-12T09:06:13.358Z,100505.03
2023-05-12T09:08:40.765Z,100509.18
2023-05-12T09:11:12.035Z,100512.39
2023-05-12T09:13:46.246Z,100517.52
2023-05-12T09:16:14.960Z,100517.97
2023-05-12T09:19:01.246Z,100517.80
2023-05-12T09:21:29.044Z,100515.80
2023-05-12T09:24:01.044Z,100517.69
2023-05-12T09:26:28.731Z,100514.90
2023-05-12T09:29:08.820Z,100520.36
2023-05-12T09:31:36.158Z,100514.35
2023-05-12T09:34:08.323Z,100515.09
2023-05-12T09:36:35.988Z,100514.56
2023-05-12T09:39:05.244Z,100514.30
2023-05-12T09:41:36.118Z,100510.45
2023-05-12T09:44:03.562Z,100514.33
2023-05-12T09:46:30.361Z,100512.39
2023-05-12T09:48:57.890Z,100508.94
2023-05-12T09:51:26.602Z,100507.21
2023-05-12T09:53:53.759Z,100512.16
2023-05-12T09:56:21.527Z,100514.23
2023-05-12T09:58:49.730Z,100516.21
2023-05-12T10:01:23.137Z,100515.94
2023-05-12T10:03:56.444Z,100514.32
2023-05-12T10:06:28.529Z,100513.30
2023-05-12T10:09:05.465Z,100516.98
2023-05-12T10:11:32.515Z,100519.91
2023-05-12T10:14:00.093Z,100523.75
2023-05-12T10:16:28.966Z,100523.36
2023-05-12T10:18:56.877Z,100517.73
2023-05-12T10:21:26.179Z,100518.25
2023-05-12T10:23:54.601Z,100512.22
2023-05-12T10:26:22.076Z,100513.05
2023-05-12T10:28:50.063Z,100516.77
2023-05-12T10:31:17.369Z,100516.83
2023-05-12T10:33:44.155Z,100510.56
2023-05-12T10:36:19.277Z,100511.27
2023-05-12T10:38:49.856Z,100514.85
2023-05-12T10:41:19.430Z,100520.73
2023-05-12T10:43:49.754Z,100524.14
2023-05-12T10:46:21.282Z,100531.23
2023-05-12T10:49:00.284Z,100531.23
2023-05-12T10:51:31.048Z,100534.85
2023-05-12T10:54:11.010Z,100533.83
2023-05-12T10:56:38.450Z,100530.86
2023-05-12T10:59:09.497Z,100536.15
2023-05-12T11:01:37.717Z,100537.27
2023-05-12T11:04:15.789Z,100533.77
2023-05-12T11:06:45.209Z,100538.94
2023-05-12T11:09:13.235Z,100540.92
2023-05-12T11:11:40.504Z,100541.92
2023-05-12T11:14:08.375Z,100545.45
2023-05-12T11:16:42.182Z,100545.41
2023-05-12T11:19:09.438Z,100543.45
2023-05-12T11:21:37.352Z,100549.12
2023-05-12T11:24:04.820Z,100542.41
2023-05-12T11:26:31.821Z,100543.18
2023-05-12T11:28:58.704Z,100540.01
2023-05-12T11:31:25.803Z,100537.98
2023-05-12T11:34:12.652Z,100531.27
2023-05-12T11:36:44.308Z,100532.30
2023-05-12T11:39:19.379Z,100531.23
2023-05-12T11:41:46.023Z,100532.96
2023-05-12T11:44:24.632Z,100531.73
2023-05-12T11:46:59.162Z,100529.59
2023-05-12T11:49:27.329Z,100536.09
2023-05-12T11:51:55.618Z,100531.67
2023-05-12T11:54:23.161Z,100528.67
2023-05-12T11:56:51.455Z,100531.52
2023-05-12T11:59:29.870Z,100528.28
2023-05-12T12:01:58.593Z,100525.90
2023-05-12T12:04:34.502Z,100526.73
2023-05-12T12:07:01.763Z,100523.54
2023-05-12T12:09:40.766Z,100514.51
2023-05-12T12:12:11.733Z,100514.54
2023-05-12T12:14:38.474Z,100511.02
2023-05-12T12:17:05.745Z,100516.66
2023-05-12T12:19:32.400Z,100517.09
2023-05-12T12:21:59.337Z,100515.70
2023-05-12T12:24:26.287Z,100518.27
2023-05-12T12:26:52.918Z,100525.63
2023-05-12T12:29:19.616Z,100521.00
2023-05-12T12:31:46.403Z,100520.08
2023-05-12T12:34:13.166Z,100516.00
2023-05-12T12:36:39.779Z,100511.97
2023-05-12T12:39:06.928Z,100506.00
2023-05-12T12:41:33.603Z,100510.45
2023-05-12T12:44:00.298Z,100510.31
2023-05-12T12:46:26.997Z,100508.75
2023-05-12T12:48:53.992Z,100504.91
2023-05-12T12:51:21.248Z,100515.98
2023-05-12T12:53:47.896Z,100510.90
2023-05-12T12:56:15.552Z,100518.39
2023-05-12T12:58:42.293Z,100523.02
2023-05-12T13:01:09.084Z,100525.01
2023-05-12T13:03:35.959Z,100524.52
2023-05-12T13:06:02.725Z,100528.09
2023-05-12T13:08:29.703Z,100530.63
2023-05-12T13:10:56.620Z,100531.05
2023-05-12T13:13:24.613Z,100531.50
2023-05-12T13:15:53.423Z,100532.35
2023-05-12T13:18:21.071Z,100528.39
2023-05-12T13:20:48.040Z,100534.98
2023-05-12T13:23:15.048Z,100533.20
2023-05-12T13:25:41.651Z,100534.37
2023-05-12T13:28:08.761Z,100536.02
2023-05-12T13:30:35.536Z,100536.60
2023-05-12T13:33:05.089Z,100535.35
2023-05-12T13:35:32.607Z,100537.63
2023-05-12T13:37:59.247Z,100530.48
2023-05-12T13:40:26.029Z,100533.89
2023-05-12T13:42:52.614Z,100534.77
2023-05-12T13:45:19.724Z,100532.81
2023-05-12T13:47:46.731Z,100532.95
2023-05-12T13:50:13.364Z,100538.11
2023-05-12T13:52:40.042Z,100544.29
2023-05-12T13:55:07.907Z,100540.98
2023-05-12T13:57:34.536Z,100542.21
2023-05-12T14:00:02.256Z,100538.98
2023-05-12T14:02:29.190Z,100533.58
2023-05-12T14:04:56.689Z,100532.96
2023-05-12T14:07:23.472Z,100529.30
2023-05-12T14:09:50.099Z,100534.19
2023-05-12T14:12:17.257Z,100540.84
2023-05-12T14:14:49.616Z,100541.57
2023-05-12T14:17:17.500Z,100547.76
2023-05-12T14:19:45.163Z,100549.91
2023-05-12T14:22:22.415Z,100548.73
2023-05-12T14:24:53.088Z,100538.38
2023-05-12T14:27:20.039Z,100537.04
2023-05-12T14:29:46.674Z,100535.09
2023-05-12T14:32:18.268Z,100528.17
2023-05-12T14:34:44.927Z,100523.77
2023-05-12T14:37:12.226Z,100532.81
2023-05-12T14:39:38.879Z,100535.23
2023-05-12T14:42:06.174Z,100534.59
2023-05-12T14:44:32.775Z,100541.63
2023-05-12T14:46:59.587Z,100542.17
2023-05-12T14:49:26.250Z,100539.61
2023-05-12T14:51:52.940Z,100538.97
2023-05-12T14:54:25.729Z,100536.00
2023-05-12T14:56:53.140Z,100530.98
2023-05-12T14:59:19.905Z,100527.64
2023-05-12T15:01:46.831Z,100524.65
2023-05-12T15:04:13.543Z,100524.48
2023-05-12T15:06:40.307Z,100524.41
2023-05-12T15:09:07.574Z,100528.65
2023-05-12T15:11:34.163Z,100521.03
2023-05-12T15:14:00.833Z,100519.58
2023-05-12T15:16:28.199Z,100522.15
2023-05-12T15:18:55.009Z,100517.88
2023-05-12T15:21:21.694Z,100513.18
2023-05-12T15:23:48.640Z,100519.02
2023-05-12T15:28:47.950Z,100522.57
2023-05-12T15:31:15.157Z,100522.85
2023-05-12T15:33:41.961Z,100523.64
2023-05-12T15:36:11.253Z,100524.02
2023-05-12T15:38:38.284Z,100524.00
2023-05-12T15:41:05.545Z,100523.79
2023-05-12T15:43:32.253Z,100525.61
2023-05-12T15:45:58.990Z,100524.64
2023-05-12T15:48:25.723Z,100525.39
2023-05-12T15:50:52.420Z,100527.21
2023-05-12T15:53:18.998Z,100523.45
2023-05-12T15:55:45.619Z,100523.88
2023-05-12T15:58:12.551Z,100524.79
2023-05-12T16:00:39.666Z,100525.04
2023-05-12T16:03:06.528Z,100523.12
2023-05-12T16:05:37.730Z,100516.49
2023-05-12T16:08:04.337Z,100515.31
2023-05-12T16:10:31.080Z,100516.05
2023-05-12T16:12:57.647Z,100519.29
2023-05-12T16:15:24.344Z,100513.78
2023-05-12T16:17:50.972Z,100510.39
2023-05-12T16:20:17.656Z,100512.71
2023-05-12T16:22:44.303Z,100510.19
2023-05-12T16:25:11.419Z,100511.91
2023-05-12T16:27:38.947Z,100513.20
2023-05-12T16:30:07.909Z,100518.58
2023-05-12T16:32:34.585Z,100520.42
2023-05-12T16:35:01.458Z,100524.57
2023-05-12T16:37:28.507Z,100525.83
2023-05-12T16:39:55.087Z,100529.15
2023-05-12T16:42:21.787Z,100529.08
2023-05-12T16:44:48.425Z,100528.57
2023-05-12T16:47:15.126Z,100523.20
2023-05-12T16:49:41.778Z,100526.49
2023-05-12T16:52:09.495Z,100525.59
2023-05-12T16:54:37.245Z,100529.03
2023-05-12T16:57:04.006Z,100524.88
2023-05-12T16:59:32.646Z,100521.77
2023-05-12T17:02:00.378Z,100526.14
2023-05-12T17:04:27.583Z,100527.89
2023-05-12T17:06:54.698Z,100528.83
2023-05-12T17:09:23.318Z,100528.08
2023-05-12T17:11:50.293Z,100528.73
2023-05-12T17:14:19.011Z,100529.91
2023-05-12T17:16:46.007Z,100533.12
2023-05-12T17:19:14.665Z,100539.25
2023-05-12T17:21:42.406Z,100545.01
2023-05-12T17:24:09.579Z,100552.02
2023-05-12T17:26:36.355Z,100555.71
2023-05-12T17:29:03.270Z,100557.88
2023-05-12T17:31:29.847Z,100560.94
2023-05-12T17:33:56.886Z,100561.08
2023-05-12T17:36:23.832Z,100571.05
2023-05-12T17:38:51.890Z,100574.70
2023-05-12T17:41:19.384Z,100574.45
2023-05-12T17:43:46.463Z,100577.77
2023-05-12T17:46:13.559Z,100579.96
2023-05-12T17:48:40.219Z,100581.75
2023-05-12T17:51:07.053Z,100581.70
2023-05-12T17:53:35.094Z,100587.73
2023-05-12T17:56:01.962Z,100585.58
2023-05-12T17:58:28.751Z,100593.65
2023-05-12T18:00:55.591Z,100591.81
2023-05-12T18:03:25.284Z,100593.69
2023-05-12T18:05:54.194Z,100597.81
2023-05-12T18:08:21.783Z,100595.42
2023-05-12T18:10:49.014Z,100598.50
2023-05-12T18:13:16.261Z,100603.11
2023-05-12T18:15:43.508Z,100602.75
2023-05-12T18:18:10.885Z,100608.36
2023-05-12T18:20:37.916Z,100609.46
2023-05-12T18:23:04.747Z,100617.34
2023-05-12T18:25:31.485Z,100618.26
2023-05-12T18:27:58.126Z,100626.73
2023-05-12T18:30:24.978Z,100629.86
2023-05-12T18:32:52.050Z,100632.77
2023-05-12T18:35:19.156Z,100640.18
2023-05-12T18:37:46.217Z,100643.70
2023-05-12T18:40:13.270Z,100642.72
2023-05-12T18:42:40.112Z,100644.83
2023-05-12T18:45:07.468Z,100644.59
2023-05-12T18:47:34.583Z,100646.08
2023-05-12T18:50:01.580Z,100650.86
2023-05-12T18:52:28.413Z,100652.27
2023-05-12T18:54:56.793Z,100658.38
2023-05-12T18:57:23.533Z,100660.44
2023-05-12T18:59:50.230Z,100663.40
2023-05-12T19:02:17.571Z,100669.19
2023-05-12T19:04:44.776Z,100673.50
2023-05-12T19:07:15.440Z,100678.96
2023-05-12T19:09:43.365Z,100684.27
2023-05-12T19:12:11.784Z,100688.06
2023-05-12T19:14:39.184Z,100691.78
2023-05-12T19:17:09.092Z,100693.65
2023-05-12T19:19:35.788Z,100696.96
2023-05-12T19:22:04.324Z,100703.05
2023-05-12T19:24:31.178Z,100706.91
2023-05-12T19:26:58.064Z,100713.03
2023-05-12T19:29:24.891Z,100712.60
2023-05-12T19:31:52.972Z,100717.52
2023-05-12T19:34:20.607Z,100722.73
2023-05-12T19:36:47.498Z,100724.50
2023-05-12T19:39:14.128Z,100728.98
2023-05-12T19:41:41.139Z,100734.48
2023-05-12T19:44:07.911Z,100732.34
2023-05-12T19:46:34.622Z,100734.58
2023-05-12T19:49:01.220Z,100734.48
2023-05-12T19:51:28.328Z,100738.52
2023-05-12T19:53:55.097Z,100741.23
2023-05-12T19:56:21.705Z,100743.95
2023-05-12T19:58:48.345Z,100742.23
2023-05-12T20:01:15.256Z,100742.98
2023-05-12T20:03:42.112Z,100741.36
2023-05-12T20:06:08.911Z,100743.17
2023-05-12T20:08:35.651Z,100742.42
2023-05-12T20:11:02.285Z,100741.50
2023-05-12T20:13:28.968Z,100746.08
2023-05-12T20:15:55.643Z,100743.73
2023-05-12T20:18:23.762Z,100747.67
2023-05-12T20:20:51.075Z,100748.18
2023-05-12T20:23:17.688Z,100745.09
2023-05-12T20:25:44.312Z,100743.67
2023-05-12T20:28:11.763Z,100743.31
2023-05-12T20:30:38.627Z,100742.58
2023-05-12T20:33:05.688Z,100745.79
2023-05-12T20:35:32.578Z,100741.66
2023-05-12T20:37:59.484Z,100746.20
2023-05-12T20:40:26.186Z,100746.94
2023-05-12T20:42:52.880Z,100748.51
2023-05-12T20:45:20.209Z,100750.72
2023-05-12T20:47:47.335Z,100754.73
2023-05-12T20:50:13.979Z,100753.52
2023-05-12T20:52:42.245Z,100754.17
2023-05-12T20:55:09.806Z,100758.17
2023-05-12T20:57:37.925Z,100758.17
2023-05-12T21:00:07.496Z,100761.01
2023-05-12T21:02:34.145Z,100758.63
2023-05-12T21:05:00.964Z,100758.86
2023-05-12T21:07:27.538Z,100754.42
2023-05-12T21:09:54.113Z,100753.18
2023-05-12T21:12:20.731Z,100749.11
2023-05-12T21:14:47.383Z,100753.23
2023-05-12T21:17:14.122Z,100755.98
2023-05-12T21:19:41.704Z,100754.63
2023-05-12T21:22:10.616Z,100753.48
2023-05-12T21:24:39.392Z,100750.41
2023-05-12T21:27:08.195Z,100751.89
2023-05-12T21:29:36.498Z,100751.98
2023-05-12T21:32:03.316Z,100750.70
2023-05-12T21:34:31.267Z,100752.54
2023-05-12T21:36:59.770Z,100756.59
2023-05-12T21:39:26.608Z,100760.45
2023-05-12T21:41:53.671Z,100762.83
2023-05-12T21:44:20.319Z,100760.48
2023-05-12T21:46:47.060Z,100764.81
2023-05-12T21:49:13.930Z,100764.46
2023-05-12T21:51:40.636Z,100763.10
2023-05-12T21:54:07.549Z,100768.21
2023-05-12T21:56:34.524Z,100770.02
2023-05-12T21:59:01.651Z,100769.02
2023-05-12T22:01:30.026Z,100778.54
2023-05-12T22:03:59.878Z,100777.42
2023-05-12T22:06:27.021Z,100780.85
2023-05-12T22:08:54.319Z,100786.61
2023-05-12T22:11:21.719Z,100791.09
2023-05-12T22:13:49.098Z,100795.15
2023-05-12T22:16:17.529Z,100799.50
2023-05-12T22:18:45.566Z,100805.24
2023-05-12T22:21:12.917Z,100814.04
2023-05-12T22:23:42.524Z,100818.39
2023-05-12T22:26:10.254Z,100820.38
2023-05-12T22:28:36.905Z,100822.30
2023-05-12T22:31:05.026Z,100824.17
2023-05-12T22:33:32.592Z,100824.19
2023-05-12T22:36:00.247Z,100824.15
2023-05-12T22:38:29.818Z,100827.45
2023-05-12T22:40:56.576Z,100831.48
2023-05-12T22:43:23.210Z,100828.10
2023-05-12T22:45:52.051Z,100827.28
2023-05-12T22:48:19.609Z,100833.30
2023-05-12T22:50:46.327Z,100829.06
2023-05-12T22:53:13.001Z,100831.17
2023-05-12T22:55:40.397Z,100826.65
2023-05-12T22:58:07.169Z,100824.89
2023-05-12T23:00:33.774Z,100823.64
2023-05-12T23:03:00.610Z,100823.39
2023-05-12T23:05:27.294Z,100828.55
2023-05-12T23:07:54.418Z,100829.56
2023-05-12T23:10:21.440Z,100831.87
2023-05-12T23:12:48.202Z,100831.92
2023-05-12T23:15:14.886Z,100831.39
2023-05-12T23:17:41.552Z,100828.83
2023-05-12T23:20:08.914Z,100828.62
2023-05-12T23:22:35.806Z,100833.35
2023-05-12T23:25:02.805Z,100834.06
2023-05-12T23:27:29.492Z,100837.25
2023-05-12T23:29:56.093Z,100835.58
2023-05-12T23:32:22.804Z,100840.23
2023-05-12T23:34:49.488Z,100840.57
2023-05-12T23:37:16.279Z,100838.49
2023-05-12T23:39:42.994Z,100837.61
2023-05-12T23:42:09.753Z,100828.94
2023-05-12T23:44:36.479Z,100830.23
2023-05-12T23:47:03.542Z,100828.81
2023-05-12T23:49:30.134Z,100832.02
2023-05-12T23:51:56.703Z,100829.69
2023-05-12T23:54:23.426Z,100832.23
2023-05-12T23:56:50.606Z,100824.74
2023-05-12T23:59:17.256Z,100824.34
